Time;durP1;ratioP1;P1;durP2;ratioP2;P2;SDS_P1;SDS_P2;PMS_P1;PMS_P2;Temp;Humidity;BMP_temperature;BMP_pressure;BME280_temperature;BME280_humidity;BME280_pressure;Samples;Min_cycle;Max_cycle;Signal;HPM_P1;HPM_P2
2021/03/09 00:02:04;;;;;;;1.80;1.48;;;22.50;42.80;;;;;;5086135;28;20068;-32
2021/03/09 00:04:30;;;;;;;2.00;1.30;;;22.50;42.80;;;;;;5091888;28;20073;-29
2021/03/09 00:06:56;;;;;;;2.20;1.75;;;22.50;42.80;;;;;;5090706;28;20028;-34
2021/03/09 00:09:23;;;;;;;1.60;1.40;;;22.50;42.80;;;;;;5088621;28;21050;-32
2021/03/09 00:11:49;;;;;;;1.80;1.38;;;22.40;42.70;;;;;;5087836;28;20068;-32
2021/03/09 00:14:15;;;;;;;2.25;1.70;;;22.40;42.80;;;;;;5086795;28;20054;-31
2021/03/09 00:16:41;;;;;;;2.20;1.52;;;22.40;42.70;;;;;;5084887;28;20104;-32
2021/03/09 00:19:07;;;;;;;1.92;1.38;;;22.40;42.70;;;;;;5089094;28;20051;-33
2021/03/09 00:21:34;;;;;;;2.58;1.63;;;22.40;42.70;;;;;;5094062;28;20029;-33
2021/03/09 00:24:00;;;;;;;2.20;1.63;;;22.40;42.80;;;;;;5066673;28;20028;-29
2021/03/09 00:26:26;;;;;;;2.17;1.70;;;22.40;42.80;;;;;;5097130;28;20209;-32
2021/03/09 00:28:52;;;;;;;2.25;1.40;;;22.30;42.70;;;;;;5087916;28;20080;-33
2021/03/09 00:31:18;;;;;;;1.80;1.60;;;22.30;42.80;;;;;;5086144;28;20024;-29
2021/03/09 00:33:44;;;;;;;2.00;1.45;;;22.30;42.70;;;;;;5088488;28;20024;-34
2021/03/09 00:36:11;;;;;;;1.73;1.30;;;22.30;42.80;;;;;;5085505;28;20050;-30
2021/03/09 00:38:37;;;;;;;2.08;1.42;;;22.30;42.80;;;;;;5090533;28;20035;-29
2021/03/09 00:41:03;;;;;;;1.58;1.48;;;22.30;42.80;;;;;;5089969;28;20481;-29
2021/03/09 00:43:29;;;;;;;1.80;1.60;;;22.30;42.80;;;;;;5092189;28;20073;-32
2021/03/09 00:45:55;;;;;;;1.92;1.40;;;22.30;42.90;;;;;;5091922;28;20031;-29
2021/03/09 00:48:21;;;;;;;2.38;1.88;;;22.30;42.80;;;;;;5089013;28;20118;-34
2021/03/09 00:50:48;;;;;;;1.73;1.40;;;22.20;42.80;;;;;;5087135;28;20028;-32
2021/03/09 00:53:14;;;;;;;2.40;1.52;;;22.20;42.90;;;;;;5085030;28;20036;-30
2021/03/09 00:55:41;;;;;;;2.67;1.73;;;22.20;42.80;;;;;;5093128;28;20043;-30
2021/03/09 00:58:48;;;;;;;2.17;1.85;;;22.20;42.90;;;;;;5090155;28;20100;-31
2021/03/09 01:01:14;;;;;;;1.98;1.40;;;22.20;43.00;;;;;;5084530;28;20028;-33
2021/03/09 01:03:40;;;;;;;1.98;1.50;;;22.10;42.90;;;;;;5092965;28;20032;-31
2021/03/09 01:06:06;;;;;;;4.43;1.50;;;22.10;42.90;;;;;;5088839;28;20027;-30
2021/03/09 01:08:33;;;;;;;1.70;1.38;;;22.10;42.90;;;;;;5087315;28;20171;-33
2021/03/09 01:10:59;;;;;;;2.23;1.50;;;22.10;43.10;;;;;;5091736;28;20036;-32
2021/03/09 01:13:25;;;;;;;2.10;1.40;;;22.10;43.00;;;;;;5065891;28;20039;-33
2021/03/09 01:15:52;;;;;;;2.60;1.52;;;22.10;43.10;;;;;;5062337;28;20023;-31
2021/03/09 01:18:19;;;;;;;1.90;1.58;;;22.10;43.10;;;;;;5089941;28;20093;-29
2021/03/09 01:20:46;;;;;;;3.30;1.55;;;22.00;43.00;;;;;;5082600;28;20028;-32
2021/03/09 01:23:12;;;;;;;1.77;1.55;;;22.00;43.10;;;;;;5085694;28;20032;-34
2021/03/09 01:25:38;;;;;;;3.08;1.30;;;22.00;43.10;;;;;;5084521;28;20028;-30
2021/03/09 01:28:05;;;;;;;1.83;1.55;;;22.00;43.10;;;;;;5089178;28;20117;-30
2021/03/09 01:30:31;;;;;;;2.13;1.33;;;22.00;43.10;;;;;;5083837;28;20081;-34
2021/03/09 01:32:57;;;;;;;2.88;1.55;;;22.00;43.10;;;;;;5090456;28;20264;-32
2021/03/09 01:35:23;;;;;;;2.42;1.50;;;21.90;43.10;;;;;;5081693;28;20059;-32
2021/03/09 01:37:49;;;;;;;2.75;1.73;;;21.90;43.20;;;;;;5065141;28;20044;-32
2021/03/09 01:40:16;;;;;;;2.63;1.67;;;21.90;43.20;;;;;;5082559;28;20651;-31
2021/03/09 01:42:42;;;;;;;2.45;1.80;;;21.90;43.20;;;;;;5093958;28;20020;-32
2021/03/09 01:45:09;;;;;;;2.17;1.70;;;21.90;43.20;;;;;;5085490;28;20032;-32
2021/03/09 01:47:42;;;;;;;2.90;1.70;;;21.90;43.30;;;;;;5095184;28;20495;-33
2021/03/09 01:50:09;;;;;;;2.45;1.75;;;21.80;43.20;;;;;;5088612;28;20032;-34
2021/03/09 01:52:36;;;;;;;1.73;1.48;;;21.80;43.20;;;;;;5068146;28;20112;-32
2021/03/09 01:55:03;;;;;;;2.78;1.65;;;21.80;43.20;;;;;;5085846;28;20046;-30
2021/03/09 01:57:29;;;;;;;2.20;1.77;;;21.80;43.30;;;;;;5090821;28;20059;-31
2021/03/09 01:59:55;;;;;;;2.88;1.80;;;21.80;43.30;;;;;;5090450;28;20037;-30
2021/03/09 02:02:21;;;;;;;2.30;2.10;;;21.70;43.20;;;;;;5094607;28;20032;-31
2021/03/09 02:04:47;;;;;;;1.63;1.40;;;21.70;43.30;;;;;;5090396;28;20020;-32
2021/03/09 02:07:14;;;;;;;2.50;1.85;;;21.70;43.30;;;;;;5089867;28;20033;-30
2021/03/09 02:09:40;;;;;;;1.92;1.67;;;21.70;43.30;;;;;;5090834;28;20050;-29
2021/03/09 02:12:37;;;;;;;3.08;2.28;;;21.70;43.20;;;;;;5069708;28;20044;-31
2021/03/09 02:15:25;;;;;;;2.67;2.10;;;21.60;43.30;;;;;;5065956;28;20040;-30
2021/03/09 02:18:01;;;;;;;2.43;1.93;;;21.60;43.30;;;;;;5087948;28;20050;-31
2021/03/09 02:20:45;;;;;;;2.38;1.92;;;21.60;43.40;;;;;;5048653;28;20033;-32
2021/03/09 02:23:30;;;;;;;2.33;1.75;;;21.60;43.40;;;;;;5090681;28;20092;-32
2021/03/09 02:26:02;;;;;;;3.40;2.22;;;21.60;43.50;;;;;;5089804;28;20568;-31
2021/03/09 02:28:40;;;;;;;2.22;2.03;;;21.60;43.50;;;;;;5083077;28;20054;-32
2021/03/09 02:31:07;;;;;;;2.65;2.20;;;21.50;43.50;;;;;;5059144;28;20036;-33
2021/03/09 02:33:40;;;;;;;4.00;2.35;;;21.50;43.50;;;;;;5068135;28;20028;-32
2021/03/09 02:36:08;;;;;;;2.15;1.85;;;21.50;43.50;;;;;;5070919;28;20050;-33
2021/03/09 02:38:57;;;;;;;2.33;2.13;;;21.50;43.50;;;;;;5069708;28;20040;-33
2021/03/09 02:41:24;;;;;;;2.70;2.20;;;21.50;43.50;;;;;;5050493;28;20562;-32
2021/03/09 02:43:53;;;;;;;2.20;1.93;;;21.40;43.40;;;;;;5072776;28;20249;-38
2021/03/09 02:46:20;;;;;;;3.53;2.28;;;21.40;43.40;;;;;;5080601;28;20281;-35
2021/03/09 02:48:46;;;;;;;3.38;2.30;;;21.40;43.50;;;;;;5074042;28;20027;-31
2021/03/09 02:51:12;;;;;;;2.97;2.22;;;21.40;43.50;;;;;;5077290;28;20028;-31
2021/03/09 02:53:41;;;;;;;2.30;2.10;;;21.30;43.50;;;;;;5075620;28;20039;-31
2021/03/09 02:56:07;;;;;;;2.60;2.10;;;21.30;43.60;;;;;;5078383;28;20035;-33
2021/03/09 02:58:34;;;;;;;2.85;2.45;;;21.30;44.10;;;;;;5062239;28;20144;-35
2021/03/09 03:01:00;;;;;;;3.03;2.63;;;21.30;43.50;;;;;;5074785;28;20016;-34
2021/03/09 03:03:26;;;;;;;3.00;2.65;;;21.30;43.60;;;;;;5098199;28;20049;-30
2021/03/09 03:05:57;;;;;;;3.63;2.80;;;21.30;43.60;;;;;;5079296;28;20036;-33
2021/03/09 03:08:23;;;;;;;3.65;2.90;;;21.20;43.60;;;;;;5059235;28;20052;-30
2021/03/09 03:10:50;;;;;;;3.65;2.90;;;21.20;43.60;;;;;;5095147;28;20036;-32
2021/03/09 03:13:16;;;;;;;3.67;3.28;;;21.20;43.60;;;;;;5056045;28;20029;-33
2021/03/09 03:15:42;;;;;;;4.03;3.20;;;21.20;43.60;;;;;;5073799;28;20028;-31
2021/03/09 03:18:13;;;;;;;3.70;3.20;;;21.10;43.70;;;;;;5076043;28;20079;-35
2021/03/09 03:20:41;;;;;;;5.00;3.58;;;21.10;43.70;;;;;;5092722;28;20066;-30
2021/03/09 03:23:07;;;;;;;5.35;3.65;;;21.10;43.60;;;;;;5070201;28;20040;-31
2021/03/09 03:25:33;;;;;;;5.03;3.47;;;21.10;43.70;;;;;;5055201;28;20281;-32
2021/03/09 03:27:59;;;;;;;3.88;3.38;;;21.10;43.70;;;;;;5067362;28;20024;-29
2021/03/09 03:30:25;;;;;;;4.47;3.65;;;21.00;43.70;;;;;;5074594;28;20059;-30
2021/03/09 03:32:52;;;;;;;4.20;3.55;;;21.00;43.70;;;;;;5089113;28;20020;-33
2021/03/09 03:35:18;;;;;;;6.10;4.50;;;21.00;43.70;;;;;;5070591;28;20481;-30
2021/03/09 03:37:44;;;;;;;4.80;3.83;;;21.00;43.80;;;;;;5091988;28;20063;-32
2021/03/09 03:40:15;;;;;;;4.43;3.80;;;21.00;43.70;;;;;;5090724;28;20048;-31
2021/03/09 03:42:42;;;;;;;5.07;4.43;;;20.90;43.80;;;;;;5086042;28;20056;-36
2021/03/09 03:45:09;;;;;;;5.88;4.10;;;20.90;43.80;;;;;;5089283;28;20028;-29
2021/03/09 03:47:36;;;;;;;5.57;4.60;;;20.90;43.90;;;;;;5093459;28;20032;-31
2021/03/09 03:50:04;;;;;;;5.32;3.90;;;20.90;43.90;;;;;;5058884;28;20028;-31
2021/03/09 03:52:45;;;;;;;4.55;4.05;;;20.90;43.80;;;;;;5073056;28;20032;-31
2021/03/09 03:55:26;;;;;;;4.90;4.40;;;20.90;43.90;;;;;;5087710;28;20054;-30
2021/03/09 03:57:52;;;;;;;5.28;4.13;;;20.80;43.80;;;;;;5054025;28;20064;-30
2021/03/09 04:00:20;;;;;;;5.57;4.13;;;20.80;43.80;;;;;;5052753;28;20112;-30
2021/03/09 04:02:47;;;;;;;5.32;4.03;;;20.80;43.90;;;;;;5089925;28;20560;-33
2021/03/09 04:05:13;;;;;;;;;;;20.80;43.90;;;;;;5091309;28;20050;-31
2021/03/09 04:07:40;;;;;;;4.55;3.88;;;20.70;43.90;;;;;;5089675;28;19926;-31
2021/03/09 04:10:06;;;;;;;5.47;4.10;;;20.70;43.90;;;;;;5091106;28;20032;-31
2021/03/09 04:12:33;;;;;;;6.28;4.65;;;20.70;44.10;;;;;;5090706;28;20037;-34
2021/03/09 04:14:59;;;;;;;5.07;4.13;;;20.70;44.10;;;;;;5074555;28;20031;-29
2021/03/09 04:17:26;;;;;;;4.72;4.22;;;20.60;44.00;;;;;;5090529;28;20050;-30
2021/03/09 04:19:56;;;;;;;4.93;4.00;;;20.60;44.00;;;;;;5087615;28;20023;-29
2021/03/09 04:22:23;;;;;;;5.25;4.15;;;20.60;44.10;;;;;;5091031;28;20028;-33
2021/03/09 04:24:49;;;;;;;4.28;3.88;;;20.60;44.10;;;;;;5066120;28;20029;-30
2021/03/09 04:27:22;;;;;;;4.97;4.13;;;20.60;44.10;;;;;;5070594;28;20035;-34
2021/03/09 04:29:49;;;;;;;5.25;4.13;;;20.60;44.20;;;;;;5058575;28;20035;-33
2021/03/09 04:32:15;;;;;;;4.35;3.90;;;20.60;44.10;;;;;;5091945;28;20033;-33
2021/03/09 04:34:42;;;;;;;4.60;3.95;;;20.50;44.10;;;;;;5096999;28;20028;-33
2021/03/09 04:37:08;;;;;;;4.30;3.70;;;20.50;44.20;;;;;;5064101;28;20055;-33
2021/03/09 04:39:35;;;;;;;4.13;3.53;;;20.50;44.20;;;;;;5056301;28;20102;-30
2021/03/09 04:42:01;;;;;;;5.88;4.03;;;20.50;44.20;;;;;;5064243;28;20036;-29
2021/03/09 04:44:27;;;;;;;5.00;3.75;;;20.40;44.10;;;;;;5088650;28;20676;-33
2021/03/09 04:46:53;;;;;;;5.00;4.05;;;20.40;44.10;;;;;;5092291;28;20028;-31
2021/03/09 04:49:19;;;;;;;4.60;3.38;;;20.40;44.20;;;;;;5084590;28;20020;-32
2021/03/09 04:51:46;;;;;;;4.80;3.70;;;20.40;44.20;;;;;;5096121;28;20024;-30
2021/03/09 04:54:12;;;;;;;3.50;3.20;;;20.40;44.30;;;;;;5073297;28;20033;-30
2021/03/09 04:56:39;;;;;;;5.15;3.40;;;20.40;44.20;;;;;;5072625;28;20036;-36
2021/03/09 04:59:05;;;;;;;4.07;3.22;;;20.40;44.20;;;;;;5092471;28;20023;-31
2021/03/09 05:01:32;;;;;;;3.90;3.20;;;20.30;44.20;;;;;;5069057;28;20024;-29
2021/03/09 05:03:58;;;;;;;4.07;3.60;;;20.30;44.20;;;;;;5089787;28;20050;-36
2021/03/09 05:06:24;;;;;;;3.80;3.40;;;20.30;44.30;;;;;;5088463;28;20039;-33
2021/03/09 05:08:51;;;;;;;4.00;3.33;;;20.30;44.30;;;;;;5065012;28;20100;-32
2021/03/09 05:11:17;;;;;;;5.28;3.45;;;20.30;44.40;;;;;;5087974;28;20063;-30
2021/03/09 05:13:43;;;;;;;5.18;3.60;;;20.30;44.30;;;;;;5088413;28;20032;-30
2021/03/09 05:16:09;;;;;;;5.28;3.67;;;20.20;44.30;;;;;;5091948;28;20035;-31
2021/03/09 05:18:35;;;;;;;4.72;3.50;;;20.20;44.40;;;;;;5087534;28;20089;-34
2021/03/09 05:21:01;;;;;;;4.53;3.40;;;20.20;44.40;;;;;;5091489;28;20020;-31
2021/03/09 05:23:28;;;;;;;3.88;3.22;;;20.20;44.40;;;;;;5086421;28;20024;-29
2021/03/09 05:25:55;;;;;;;4.15;3.17;;;20.20;44.40;;;;;;5091192;28;20033;-30
2021/03/09 05:28:21;;;;;;;5.90;3.67;;;20.10;44.40;;;;;;5087241;28;20036;-31
2021/03/09 05:30:47;;;;;;;4.90;3.55;;;20.10;44.40;;;;;;5071508;28;20674;-31
2021/03/09 05:33:13;;;;;;;3.38;2.72;;;20.10;44.30;;;;;;5085656;28;20048;-30
2021/03/09 05:35:39;;;;;;;5.57;3.60;;;20.10;44.40;;;;;;5078337;28;20050;-30
2021/03/09 05:38:05;;;;;;;4.80;3.53;;;20.10;44.40;;;;;;5085077;28;20486;-29
2021/03/09 05:40:32;;;;;;;4.75;3.40;;;20.00;44.50;;;;;;5091373;28;20016;-30
2021/03/09 05:42:58;;;;;;;4.72;3.13;;;20.00;44.40;;;;;;5088889;28;20029;-35
2021/03/09 05:45:24;;;;;;;3.53;3.13;;;20.00;44.50;;;;;;5088859;28;20047;-32
2021/03/09 05:47:51;;;;;;;3.63;3.15;;;20.00;44.50;;;;;;5091858;28;20036;-34
2021/03/09 05:50:17;;;;;;;4.45;3.03;;;20.00;44.50;;;;;;5093467;28;20507;-30
2021/03/09 05:52:44;;;;;;;4.05;3.35;;;19.90;44.50;;;;;;5089741;28;20064;-33
2021/03/09 05:55:11;;;;;;;4.07;3.25;;;19.90;44.50;;;;;;5079355;28;20042;-31
2021/03/09 05:57:38;;;;;;;3.88;3.00;;;19.90;44.60;;;;;;5088154;28;20123;-30
2021/03/09 06:00:08;;;;;;;4.10;3.03;;;19.90;44.60;;;;;;5068919;28;20025;-32
2021/03/09 06:02:35;;;;;;;3.25;2.75;;;19.90;44.60;;;;;;5072227;28;20405;-30
2021/03/09 06:05:05;;;;;;;4.72;2.92;;;19.90;44.60;;;;;;5088913;28;20029;-30
2021/03/09 06:07:31;;;;;;;3.67;3.25;;;19.80;44.60;;;;;;5083508;28;20409;-33
2021/03/09 06:09:58;;;;;;;4.05;3.20;;;19.80;44.60;;;;;;5082653;28;20048;-31
2021/03/09 06:12:25;;;;;;;5.55;2.88;;;19.80;44.60;;;;;;5091763;28;20036;-35
2021/03/09 06:14:59;;;;;;;5.07;3.30;;;19.80;44.60;;;;;;5083683;28;20028;-34
2021/03/09 06:17:29;;;;;;;3.40;2.50;;;19.80;44.60;;;;;;5081493;28;20078;-34
2021/03/09 06:19:55;;;;;;;3.60;2.63;;;19.80;44.70;;;;;;5084255;28;20019;-30
2021/03/09 06:22:37;;;;;;;4.25;3.20;;;19.70;44.60;;;;;;5076040;28;20024;-31
2021/03/09 06:25:04;;;;;;;3.53;2.80;;;19.70;44.70;;;;;;5074762;28;20043;-32
2021/03/09 06:27:31;;;;;;;3.85;2.97;;;19.70;44.70;;;;;;5096139;28;20055;-32
2021/03/09 06:29:58;;;;;;;3.55;2.80;;;19.70;44.60;;;;;;5093760;28;20085;-31
2021/03/09 06:32:24;;;;;;;4.50;3.17;;;19.60;44.70;;;;;;5077556;28;20032;-31
2021/03/09 06:34:52;;;;;;;3.47;2.60;;;19.60;44.70;;;;;;5091259;28;20285;-30
2021/03/09 06:37:21;;;;;;;;;;;19.60;44.70;;;;;;5090436;28;20045;-31
2021/03/09 06:39:52;;;;;;;5.28;2.97;;;19.60;44.70;;;;;;5088036;28;20830;-33
2021/03/09 06:42:25;;;;;;;3.70;2.97;;;19.60;44.80;;;;;;5087568;28;20036;-30
2021/03/09 06:44:54;;;;;;;3.72;2.70;;;19.50;44.80;;;;;;5086015;28;20576;-33
2021/03/09 06:47:46;;;;;;;3.63;2.70;;;19.50;44.90;;;;;;5073266;28;20092;-30
2021/03/09 06:50:19;;;;;;;3.50;2.80;;;19.50;44.80;;;;;;5091546;28;20033;-31
2021/03/09 06:52:59;;;;;;;3.78;2.88;;;19.50;44.80;;;;;;5090835;28;20025;-32
2021/03/09 06:55:32;;;;;;;3.42;3.00;;;19.50;44.90;;;;;;5080948;28;20051;-32
2021/03/09 06:58:10;;;;;;;3.97;2.95;;;19.50;44.90;;;;;;5087047;28;20040;-33
2021/03/09 07:00:37;;;;;;;4.93;2.60;;;19.40;44.90;;;;;;5088693;28;20034;-31
2021/03/09 07:03:03;;;;;;;3.92;2.85;;;19.40;44.90;;;;;;5085637;28;20497;-31
2021/03/09 07:05:30;;;;;;;3.40;2.30;;;19.40;45.00;;;;;;5073636;28;20028;-31
2021/03/09 07:07:56;;;;;;;3.73;2.57;;;19.40;45.00;;;;;;5089708;28;20054;-32
2021/03/09 07:10:28;;;;;;;2.95;2.53;;;19.40;45.00;;;;;;5094231;28;20033;-29
2021/03/09 07:12:54;;;;;;;3.20;2.90;;;19.40;45.00;;;;;;5091405;28;20509;-33
2021/03/09 07:15:21;;;;;;;3.25;2.55;;;19.30;45.00;;;;;;5071802;28;20040;-30
2021/03/09 07:17:50;;;;;;;4.05;2.90;;;19.30;45.00;;;;;;5093003;28;20036;-32
2021/03/09 07:20:17;;;;;;;3.58;2.80;;;19.30;45.10;;;;;;5075888;28;20501;-34
2021/03/09 07:22:44;;;;;;;4.38;3.00;;;19.30;45.20;;;;;;5091125;28;20028;-30
2021/03/09 07:25:17;;;;;;;3.65;3.00;;;19.30;45.20;;;;;;5088420;28;20028;-31
2021/03/09 07:27:49;;;;;;;3.72;2.72;;;19.20;45.20;;;;;;5092996;28;20488;-30
2021/03/09 07:30:17;;;;;;;3.53;2.92;;;19.20;45.20;;;;;;5088493;28;20043;-30
2021/03/09 07:32:47;;;;;;;5.35;3.10;;;19.20;45.30;;;;;;5088023;28;20035;-30
2021/03/09 07:35:14;;;;;;;4.43;3.05;;;19.20;45.30;;;;;;5057066;28;20025;-28
2021/03/09 07:37:41;;;;;;;4.32;2.90;;;19.20;45.40;;;;;;5088697;28;20055;-30
2021/03/09 07:40:15;;;;;;;3.95;2.90;;;19.20;45.40;;;;;;5071217;28;20124;-32
2021/03/09 07:42:42;;;;;;;3.50;2.95;;;19.20;45.40;;;;;;5092135;28;20060;-33
2021/03/09 07:45:12;;;;;;;5.07;3.17;;;19.20;45.50;;;;;;5091301;28;20035;-30
2021/03/09 07:47:51;;;;;;;3.63;3.08;;;19.10;45.40;;;;;;5071442;28;20032;-31
2021/03/09 07:50:18;;;;;;;4.38;2.90;;;19.10;45.40;;;;;;5098414;28;20028;-32
2021/03/09 07:53:13;;;;;;;4.78;3.13;;;19.10;45.50;;;;;;5099107;28;20057;-32
2021/03/09 07:55:40;;;;;;;4.60;2.97;;;19.10;45.50;;;;;;5093634;28;20031;-31
2021/03/09 07:58:23;;;;;;;4.68;3.17;;;19.00;45.50;;;;;;5094015;28;20043;-33
2021/03/09 08:00:54;;;;;;;3.38;2.55;;;19.00;45.60;;;;;;5088851;28;20119;-33
2021/03/09 08:03:39;;;;;;;4.78;3.33;;;19.00;45.60;;;;;;5093216;28;20065;-29
2021/03/09 08:06:12;;;;;;;3.22;2.63;;;19.00;45.60;;;;;;5085884;28;20024;-31
2021/03/09 08:08:45;;;;;;;5.65;2.95;;;19.00;45.60;;;;;;5070308;28;20588;-28
2021/03/09 08:11:14;;;;;;;4.55;2.97;;;18.90;45.60;;;;;;5090426;28;20020;-31
2021/03/09 08:13:41;;;;;;;4.38;3.40;;;18.90;45.70;;;;;;5087220;28;20039;-31
2021/03/09 08:16:19;;;;;;;3.90;3.17;;;18.90;45.70;;;;;;5068103;28;20035;-30
2021/03/09 08:18:47;;;;;;;3.58;2.60;;;18.90;45.70;;;;;;5075124;28;20036;-31
2021/03/09 08:21:13;;;;;;;;;;;18.90;45.80;;;;;;5091997;28;20059;-29
2021/03/09 08:23:45;;;;;;;4.90;3.17;;;18.90;45.80;;;;;;5092986;28;19915;-31
2021/03/09 08:26:14;;;;;;;3.72;3.08;;;18.80;45.80;;;;;;5091528;28;20032;-32
2021/03/09 08:28:41;;;;;;;4.70;3.05;;;18.80;45.80;;;;;;5091148;28;20020;-30
2021/03/09 08:31:17;;;;;;;3.97;3.08;;;18.80;45.90;;;;;;5073961;28;20090;-31
2021/03/09 08:33:43;;;;;;;4.03;3.15;;;18.80;45.80;;;;;;5092500;28;20024;-31
2021/03/09 08:36:26;;;;;;;5.63;3.10;;;18.80;45.80;;;;;;5083349;28;20059;-33
2021/03/09 08:39:02;;;;;;;5.00;3.00;;;18.70;45.80;;;;;;5089477;28;20465;-31
2021/03/09 08:41:37;;;;;;;5.28;3.45;;;18.80;45.80;;;;;;5092570;28;20025;-32
2021/03/09 08:44:22;;;;;;;5.40;3.20;;;18.70;45.80;;;;;;5088818;28;20074;-31
2021/03/09 08:46:53;;;;;;;5.43;3.42;;;18.70;45.80;;;;;;5090250;28;20031;-31
2021/03/09 08:49:37;;;;;;;4.70;3.15;;;18.70;45.90;;;;;;5088701;28;20016;-31
2021/03/09 08:52:19;;;;;;;4.90;3.55;;;18.60;45.90;;;;;;5088522;28;20024;-31
2021/03/09 08:54:47;;;;;;;4.72;3.20;;;18.60;45.80;;;;;;5082578;28;20096;-30
2021/03/09 08:57:14;;;;;;;4.88;3.22;;;18.60;45.90;;;;;;5091393;28;20040;-30
2021/03/09 08:59:42;;;;;;;4.85;3.60;;;18.60;45.90;;;;;;5092622;28;20020;-32
2021/03/09 09:02:11;;;;;;;;;;;18.60;45.90;;;;;;5085127;28;20032;-30
2021/03/09 09:04:39;;;;;;;5.20;3.53;;;18.60;45.80;;;;;;5086840;28;19928;-30
2021/03/09 09:07:27;;;;;;;5.15;3.75;;;18.60;46.00;;;;;;5084986;28;20020;-29
2021/03/09 09:10:04;;;;;;;5.20;3.30;;;18.50;45.90;;;;;;5087875;28;20056;-30
2021/03/09 09:12:35;;;;;;;4.43;3.40;;;18.50;45.90;;;;;;5090629;28;20056;-32
2021/03/09 09:15:12;;;;;;;3.95;3.28;;;18.50;46.00;;;;;;5090497;28;20058;-32
2021/03/09 09:17:39;;;;;;;4.57;3.53;;;18.50;46.00;;;;;;5094003;28;20043;-33
2021/03/09 09:20:11;;;;;;;5.40;3.80;;;18.50;46.00;;;;;;5091902;28;20020;-31
2021/03/09 09:22:37;;;;;;;5.80;3.55;;;18.50;46.00;;;;;;5087616;28;20448;-29
2021/03/09 09:25:15;;;;;;;5.22;3.45;;;18.50;45.90;;;;;;5055041;28;20492;-31
2021/03/09 09:27:52;;;;;;;5.70;3.80;;;18.40;46.00;;;;;;5093735;28;20058;-31
2021/03/09 09:30:46;;;;;;;5.18;3.83;;;18.40;46.00;;;;;;5085711;28;20268;-33
2021/03/09 09:33:12;;;;;;;4.80;3.53;;;18.40;45.90;;;;;;5089678;28;20127;-33
2021/03/09 09:35:40;;;;;;;5.33;3.20;;;18.40;46.00;;;;;;5086910;28;20054;-32
2021/03/09 09:38:10;;;;;;;5.03;3.72;;;18.40;46.00;;;;;;5088981;28;20417;-29
2021/03/09 09:40:40;;;;;;;5.03;3.72;;;18.40;46.00;;;;;;5089552;28;20030;-31
2021/03/09 09:43:08;;;;;;;4.97;3.63;;;18.40;46.00;;;;;;5085956;28;20660;-32
2021/03/09 09:45:52;;;;;;;5.70;3.58;;;18.30;46.00;;;;;;5086614;28;20805;-32
2021/03/09 09:48:27;;;;;;;4.95;3.55;;;18.30;46.10;;;;;;5069105;28;20032;-30
2021/03/09 09:51:04;;;;;;;5.95;3.88;;;18.30;46.10;;;;;;5072195;28;20039;-32
2021/03/09 09:53:32;;;;;;;5.40;3.75;;;18.30;46.10;;;;;;5085070;28;20460;-33
2021/03/09 09:55:59;;;;;;;5.15;3.97;;;18.20;46.10;;;;;;5090343;28;20135;-30
2021/03/09 09:58:45;;;;;;;5.65;3.85;;;18.20;46.10;;;;;;5078536;28;20116;-32
2021/03/09 10:01:17;;;;;;;4.82;3.55;;;18.20;46.10;;;;;;5071907;28;20036;-34
2021/03/09 10:03:56;;;;;;;5.50;4.03;;;18.20;46.10;;;;;;5094131;28;20012;-30
2021/03/09 10:06:24;;;;;;;5.57;4.30;;;18.20;46.10;;;;;;5091414;28;20029;-35
2021/03/09 10:08:50;;;;;;;5.30;4.00;;;18.20;46.20;;;;;;5086422;28;20071;-31
2021/03/09 10:11:16;;;;;;;5.15;3.65;;;18.10;46.10;;;;;;5070965;28;20759;-32
2021/03/09 10:13:43;;;;;;;4.35;3.67;;;18.10;46.20;;;;;;5092750;28;20053;-33
2021/03/09 10:16:10;;;;;;;5.60;3.70;;;18.10;46.20;;;;;;5089794;28;20115;-30
2021/03/09 10:18:37;;;;;;;5.53;4.18;;;18.10;46.20;;;;;;5067470;28;20036;-30
2021/03/09 10:21:03;;;;;;;6.22;3.80;;;18.10;46.20;;;;;;5070712;28;20028;-33
2021/03/09 10:23:30;;;;;;;5.93;4.00;;;18.10;46.30;;;;;;5094985;28;20032;-34
2021/03/09 10:25:58;;;;;;;5.65;4.10;;;18.10;46.20;;;;;;5088867;28;20039;-35
2021/03/09 10:28:26;;;;;;;6.47;4.18;;;18.10;46.20;;;;;;5087370;28;20079;-32
2021/03/09 10:30:52;;;;;;;5.40;3.90;;;18.00;46.20;;;;;;5085610;28;20028;-29
2021/03/09 10:33:18;;;;;;;5.67;4.17;;;18.00;46.30;;;;;;5091887;28;20028;-29
2021/03/09 10:36:04;;;;;;;5.53;3.95;;;17.90;46.20;;;;;;5090175;28;20035;-30
2021/03/09 10:38:30;;;;;;;6.03;4.20;;;18.00;46.30;;;;;;5095065;28;20038;-28
2021/03/09 10:40:57;;;;;;;7.03;4.43;;;18.00;46.40;;;;;;5086567;28;20025;-26
2021/03/09 10:44:01;;;;;;;6.10;3.90;;;17.90;46.30;;;;;;5073331;28;20029;-27
2021/03/09 10:46:28;;;;;;;4.80;3.50;;;17.90;46.30;;;;;;5000579;28;20026;-31
2021/03/09 10:48:54;;;;;;;5.65;4.03;;;17.90;46.30;;;;;;4984371;28;20030;-27
2021/03/09 10:51:21;;;;;;;5.82;3.97;;;17.90;46.30;;;;;;5000186;28;20868;-31
2021/03/09 10:53:48;;;;;;;5.90;4.30;;;17.90;46.40;;;;;;5000297;28;20036;-29
2021/03/09 10:56:14;;;;;;;6.07;4.18;;;17.90;46.40;;;;;;5000239;28;20042;-32
2021/03/09 10:58:40;;;;;;;5.88;4.47;;;17.90;46.40;;;;;;5000176;28;20058;-30
2021/03/09 11:01:07;;;;;;;6.73;4.07;;;17.80;46.30;;;;;;4983712;28;20026;-32
2021/03/09 11:03:33;;;;;;;6.93;4.78;;;17.80;46.40;;;;;;5000341;28;20030;-32
2021/03/09 11:05:59;;;;;;;7.18;4.88;;;17.80;46.40;;;;;;4982481;28;20027;-33
2021/03/09 11:08:25;;;;;;;6.57;4.65;;;17.80;46.40;;;;;;4998439;28;20042;-31
2021/03/09 11:10:55;;;;;;;7.35;4.65;;;17.80;46.40;;;;;;5000232;28;20030;-32
2021/03/09 11:13:21;;;;;;;6.63;4.60;;;17.80;46.50;;;;;;4999798;28;20094;-30
2021/03/09 11:15:47;;;;;;;6.43;4.90;;;17.70;46.40;;;;;;4999877;28;20026;-31
2021/03/09 11:18:14;;;;;;;6.00;4.43;;;17.70;46.50;;;;;;5086043;28;20907;-29
2021/03/09 11:20:43;;;;;;;6.00;4.40;;;17.70;46.50;;;;;;5090090;28;20028;-29
2021/03/09 11:23:09;;;;;;;6.72;4.70;;;17.70;46.60;;;;;;5093411;28;20047;-33
2021/03/09 11:25:37;;;;;;;7.00;4.85;;;17.70;46.60;;;;;;5088558;28;20021;-30
2021/03/09 11:28:04;;;;;;;6.75;4.72;;;17.70;46.60;;;;;;5085703;28;20054;-29
2021/03/09 11:30:31;;;;;;;5.97;4.30;;;17.60;46.60;;;;;;5092750;28;20027;-29
2021/03/09 11:32:57;;;;;;;5.83;4.57;;;17.60;46.60;;;;;;5093363;28;20055;-32
2021/03/09 11:35:23;;;;;;;6.38;4.72;;;17.60;46.60;;;;;;5087660;28;20020;-30
2021/03/09 11:37:49;;;;;;;7.57;4.85;;;17.60;46.60;;;;;;5095839;28;20040;-30
2021/03/09 11:40:16;;;;;;;6.38;4.50;;;17.60;46.70;;;;;;5096301;28;20035;-31
2021/03/09 11:42:42;;;;;;;5.95;4.55;;;17.60;46.70;;;;;;5093572;28;20028;-31
2021/03/09 11:45:08;;;;;;;7.47;4.72;;;17.60;46.60;;;;;;5092952;28;20021;-30
2021/03/09 11:47:35;;;;;;;6.57;4.83;;;17.50;46.60;;;;;;5086122;28;20033;-30
2021/03/09 11:50:03;;;;;;;6.85;4.45;;;17.50;46.60;;;;;;5090157;28;20024;-32
2021/03/09 11:52:30;;;;;;;5.85;4.30;;;17.50;46.70;;;;;;5092755;28;20040;-31
2021/03/09 11:54:56;;;;;;;7.43;4.87;;;17.50;46.70;;;;;;5096266;28;20115;-31
2021/03/09 11:57:22;;;;;;;6.80;4.63;;;17.40;46.60;;;;;;5094316;28;20042;-30
2021/03/09 11:59:48;;;;;;;7.05;5.18;;;17.40;46.70;;;;;;5091109;28;20032;-30
2021/03/09 12:02:14;;;;;;;6.90;4.93;;;17.40;46.80;;;;;;5091056;28;20044;-30
2021/03/09 12:04:41;;;;;;;5.65;4.60;;;17.40;46.80;;;;;;5097865;28;20024;-30
2021/03/09 12:07:07;;;;;;;6.60;4.90;;;17.40;46.80;;;;;;5093169;28;20028;-30
2021/03/09 12:09:34;;;;;;;5.20;4.07;;;17.40;46.80;;;;;;5090542;28;20060;-29
2021/03/09 12:12:00;;;;;;;6.10;4.80;;;17.40;46.80;;;;;;5091700;28;20028;-31
2021/03/09 12:14:26;;;;;;;6.80;5.05;;;17.40;46.80;;;;;;5084797;28;20036;-33
2021/03/09 12:16:52;;;;;;;7.03;4.75;;;17.40;46.80;;;;;;5091645;28;20028;-33
2021/03/09 12:19:18;;;;;;;6.25;4.85;;;17.30;46.80;;;;;;5084887;28;20028;-29
2021/03/09 12:21:44;;;;;;;6.05;4.80;;;17.30;46.80;;;;;;5095076;28;20142;-30
2021/03/09 12:24:11;;;;;;;10.00;5.10;;;17.30;46.80;;;;;;5085702;28;20070;-31
2021/03/09 12:26:37;;;;;;;5.53;4.53;;;17.30;46.80;;;;;;5091722;28;20032;-31
2021/03/09 12:29:04;;;;;;;6.72;4.85;;;17.30;46.80;;;;;;5092825;28;20052;-29
2021/03/09 12:31:31;;;;;;;6.30;4.82;;;17.20;46.80;;;;;;5087988;28;20039;-33
2021/03/09 12:33:58;;;;;;;5.70;4.45;;;17.20;46.90;;;;;;5089660;28;20093;-30
2021/03/09 12:36:24;;;;;;;5.85;4.57;;;17.20;46.90;;;;;;5082041;28;20112;-30
2021/03/09 12:38:50;;;;;;;5.35;4.63;;;17.20;46.90;;;;;;5089110;28;20497;-32
2021/03/09 12:41:17;;;;;;;6.00;4.43;;;17.20;46.90;;;;;;5069885;28;20027;-30
2021/03/09 12:43:43;;;;;;;7.63;5.28;;;17.20;47.00;;;;;;5085488;28;20025;-31
2021/03/09 12:46:09;;;;;;;6.60;4.73;;;17.10;46.90;;;;;;5051637;28;20468;-31
2021/03/09 12:48:35;;;;;;;6.47;5.00;;;17.10;46.90;;;;;;5070636;28;20043;-32
2021/03/09 12:51:02;;;;;;;5.00;4.50;;;17.10;47.00;;;;;;5091147;28;20063;-30
2021/03/09 12:53:28;;;;;;;7.68;4.95;;;17.10;47.00;;;;;;5089210;28;20854;-33
2021/03/09 12:55:54;;;;;;;6.70;4.95;;;17.10;47.50;;;;;;5085289;28;20036;-30
2021/03/09 12:58:20;;;;;;;6.55;4.97;;;17.10;47.00;;;;;;5087015;28;20040;-30